Aérodrome :
LOGIN :

S'inscrire | Disclaimer

   EN    FR    IT 

 










Légende :    VFR   VFR Marginal   IFR   IFR Intensif   IFR Très Intensif
Visi : 
Plafond : 
>= 8 km
>= 3000ft
5 à 8 km
1000 à 3000 ft
1500m à 5 km
500 à 1000 ft
800 à 1500m
200 à 500 ft
< 800m
< 200 ft
Symboles :   Orages  Brouillard  Fortes neiges  Fortes précipitations  Vent > 20 kt
SIGMETs :   Divers  Orages  Givrage  Turbulence  Onde Orograph.  Cendres Volcan.






- Altitude de l'aérodrome : 755 ft
- Code IATA : RWN


UKLR - Rivne

DERNIER METAR :
  • 191500Z 00000MPS 9999 OVC015 M02/M04 Q1031 NOSIG

METARs EXPIRÉS :
  • 191430Z VRB01MPS 9999 OVC015 M01/M04 Q1031 NOSIG
  • 191400Z VRB01MPS 9999 OVC016 M01/M04 Q1031 NOSIG
  • 191330Z 00000MPS 9999 OVC015 M01/M04 Q1030 NOSIG
  • 191300Z VRB01MPS 9999 OVC015 M01/M04 Q1030 NOSIG

TAF TAF UKLR
Valide du 19 à 12h jusqu'au 19 à 21h UTC


191105Z 1912/1921 16003MPS 9999 OVC010 TXM01/1912Z TNM03/1921Z
TEMPO 1918/1921 2100 BR OVC007



MET'MAP, la Météo Aéronautique d'un coup d'oeil ! - Copyright ORBIFLY Décembre 2007 - Disclaimer

ORBIFLY MET'MAP TEAM :

Programmation & Développement : Alexandra Zaïnal
Sur une idée originale de : Baudouin d'Aumeries
Assistance à la programmation : Marc-Olivier Méhu
Soutien technique & logistique : Manuel Goepfert

Contact : metmap@orbifly.com




SOURCES & CREDITS :

   NOAA